createdAt,value
2022-12-06T00:01:24.597Z,5.20
2022-12-06T00:03:54.925Z,5.20
2022-12-06T00:06:25.033Z,5.20
2022-12-06T00:08:53.858Z,5.20
2022-12-06T00:11:24.868Z,5.20
2022-12-06T00:13:55.435Z,5.20
2022-12-06T00:16:26.445Z,5.20
2022-12-06T00:18:55.336Z,5.20
2022-12-06T00:21:25.096Z,5.30
2022-12-06T00:23:55.934Z,5.30
2022-12-06T00:26:25.473Z,5.30
2022-12-06T00:28:54.695Z,5.30
2022-12-06T00:31:26.236Z,5.30
2022-12-06T00:33:55.640Z,5.40
2022-12-06T00:36:26.356Z,5.40
2022-12-06T00:38:56.207Z,5.40
2022-12-06T00:41:26.027Z,5.40
2022-12-06T00:43:54.655Z,5.40
2022-12-06T00:46:26.004Z,5.40
2022-12-06T00:48:55.697Z,5.40
2022-12-06T00:51:26.558Z,5.40
2022-12-06T00:53:55.345Z,5.50
2022-12-06T00:56:24.343Z,5.50
2022-12-06T00:58:52.849Z,5.50
2022-12-06T01:01:23.284Z,5.50
2022-12-06T01:03:56.832Z,5.50
2022-12-06T01:06:28.139Z,5.60
2022-12-06T01:08:57.263Z,5.60
2022-12-06T01:11:26.479Z,5.60
2022-12-06T01:13:55.562Z,5.60
2022-12-06T01:16:26.140Z,5.60
2022-12-06T01:18:59.278Z,5.60
2022-12-06T01:21:28.957Z,5.60
2022-12-06T01:23:57.592Z,5.60
2022-12-06T01:26:27.180Z,5.60
2022-12-06T01:28:55.850Z,5.60
2022-12-06T01:31:24.411Z,5.60
2022-12-06T01:33:52.631Z,5.70
2022-12-06T01:36:24.906Z,5.60
2022-12-06T01:38:54.697Z,5.60
2022-12-06T01:41:25.356Z,5.70
2022-12-06T01:43:54.685Z,5.60
2022-12-06T01:46:31.945Z,5.70
2022-12-06T01:49:09.114Z,5.70
2022-12-06T01:51:39.724Z,5.70
2022-12-06T01:54:12.326Z,5.70
2022-12-06T01:56:41.639Z,5.70
2022-12-06T01:59:11.240Z,5.70
2022-12-06T02:01:41.215Z,5.70
2022-12-06T02:04:09.816Z,5.70
2022-12-06T02:06:41.343Z,5.80
2022-12-06T02:09:11.183Z,5.80
2022-12-06T02:11:41.518Z,5.80
2022-12-06T02:14:12.384Z,5.80
2022-12-06T02:16:59.095Z,5.80
2022-12-06T02:19:58.637Z,5.80
2022-12-06T02:22:37.847Z,5.80
2022-12-06T02:25:32.873Z,5.90
2022-12-06T02:28:37.472Z,5.80
2022-12-06T02:31:12.187Z,5.80
2022-12-06T02:33:47.029Z,5.80
2022-12-06T02:36:20.363Z,5.80
2022-12-06T02:38:50.583Z,5.80
2022-12-06T02:41:25.128Z,5.90
2022-12-06T02:43:57.879Z,5.90
2022-12-06T02:46:29.800Z,5.90
2022-12-06T02:49:00.610Z,5.90
2022-12-06T02:51:31.208Z,5.90
2022-12-06T02:54:02.221Z,5.90
2022-12-06T02:56:32.893Z,5.90
2022-12-06T02:59:01.225Z,5.90
2022-12-06T03:01:34.062Z,6.00
2022-12-06T03:04:16.069Z,5.80
2022-12-06T03:07:16.802Z,5.90
2022-12-06T03:09:57.170Z,5.90
2022-12-06T03:12:32.886Z,5.90
2022-12-06T03:15:09.315Z,6.00
2022-12-06T03:17:43.564Z,6.00
2022-12-06T03:20:16.956Z,6.00
2022-12-06T03:22:51.627Z,6.00
2022-12-06T03:25:19.963Z,6.10
2022-12-06T03:27:49.661Z,6.10
2022-12-06T03:30:18.480Z,6.10
2022-12-06T03:32:50.211Z,6.10
2022-12-06T03:35:23.221Z,6.20
2022-12-06T03:38:12.971Z,6.10
2022-12-06T03:40:46.286Z,6.10
2022-12-06T03:43:15.092Z,6.10
2022-12-06T03:45:49.712Z,6.10
2022-12-06T03:48:23.695Z,6.10
2022-12-06T03:50:58.782Z,6.00
2022-12-06T03:53:27.371Z,6.10
2022-12-06T03:55:55.573Z,6.00
2022-12-06T03:58:23.814Z,5.90
2022-12-06T04:00:51.966Z,6.00
2022-12-06T04:03:21.564Z,6.00
2022-12-06T04:05:49.740Z,6.00
2022-12-06T04:08:17.972Z,5.80
2022-12-06T04:10:46.135Z,5.80
2022-12-06T04:13:19.450Z,5.80
2022-12-06T04:15:48.360Z,5.70
2022-12-06T04:18:16.991Z,5.80
2022-12-06T04:21:05.883Z,5.80
2022-12-06T04:23:36.168Z,5.80
2022-12-06T04:26:05.728Z,5.90
2022-12-06T04:28:51.148Z,5.90
2022-12-06T04:31:37.158Z,5.90
2022-12-06T04:34:23.034Z,5.80
2022-12-06T04:37:10.083Z,5.80
2022-12-06T04:39:38.283Z,5.80
2022-12-06T04:42:23.783Z,5.90
2022-12-06T04:44:52.105Z,5.90
2022-12-06T04:47:20.375Z,5.90
2022-12-06T04:49:48.574Z,6.00
2022-12-06T04:52:19.012Z,6.10
2022-12-06T04:54:47.296Z,6.10
2022-12-06T04:57:17.322Z,6.20
2022-12-06T04:59:46.691Z,6.20
2022-12-06T05:02:16.130Z,6.10
2022-12-06T05:04:44.407Z,6.00
2022-12-06T05:07:13.558Z,6.20
2022-12-06T05:09:43.070Z,6.20
2022-12-06T05:12:11.238Z,6.20
2022-12-06T05:14:39.384Z,6.20
2022-12-06T05:17:07.580Z,6.20
2022-12-06T05:19:35.720Z,6.10
2022-12-06T05:22:03.942Z,6.10
2022-12-06T05:24:32.138Z,6.10
2022-12-06T05:27:01.674Z,6.10
2022-12-06T05:29:29.883Z,6.10
2022-12-06T05:31:58.115Z,6.20
2022-12-06T05:34:26.451Z,6.00
2022-12-06T05:36:54.877Z,5.90
2022-12-06T05:39:23.143Z,6.10
2022-12-06T05:41:51.329Z,6.10
2022-12-06T05:44:20.831Z,6.20
2022-12-06T05:46:48.973Z,6.20
2022-12-06T05:49:17.137Z,6.30
2022-12-06T05:51:45.338Z,6.30
2022-12-06T05:54:13.562Z,6.10
2022-12-06T05:56:41.742Z,6.10
2022-12-06T05:59:10.001Z,6.10
2022-12-06T06:01:39.635Z,6.10
2022-12-06T06:04:07.810Z,6.00
2022-12-06T06:06:35.983Z,6.00
2022-12-06T06:09:04.455Z,5.90
2022-12-06T06:11:32.600Z,5.90
2022-12-06T06:14:00.724Z,5.90
2022-12-06T06:16:28.976Z,6.10
2022-12-06T06:18:58.624Z,6.00
2022-12-06T06:21:26.772Z,6.00
2022-12-06T06:23:56.964Z,6.10
2022-12-06T06:26:25.754Z,6.10
2022-12-06T06:28:53.943Z,6.10
2022-12-06T06:31:22.204Z,6.00
2022-12-06T06:33:50.387Z,5.90
2022-12-06T06:36:19.919Z,6.00
2022-12-06T06:38:48.062Z,6.00
2022-12-06T06:41:16.238Z,6.10
2022-12-06T06:43:44.431Z,6.10
2022-12-06T06:46:12.750Z,6.00
2022-12-06T06:48:41.122Z,5.90
2022-12-06T06:51:10.895Z,6.00
2022-12-06T06:53:40.520Z,6.00
2022-12-06T06:56:09.114Z,6.10
2022-12-06T06:58:37.325Z,6.10
2022-12-06T07:01:08.351Z,5.90
2022-12-06T07:03:36.941Z,6.00
2022-12-06T07:06:08.502Z,6.00
2022-12-06T07:08:36.765Z,6.00
2022-12-06T07:11:07.173Z,6.10
2022-12-06T07:13:37.706Z,6.00
2022-12-06T07:16:07.610Z,6.10
2022-12-06T07:18:36.400Z,6.00
2022-12-06T07:21:06.738Z,6.00
2022-12-06T07:23:36.176Z,6.00
2022-12-06T07:26:07.958Z,5.90
2022-12-06T07:28:37.400Z,5.90
2022-12-06T07:31:10.367Z,5.90
2022-12-06T07:33:39.095Z,5.80
2022-12-06T07:36:12.875Z,5.90
2022-12-06T07:38:42.934Z,5.90
2022-12-06T07:41:32.143Z,5.80
2022-12-06T07:44:19.434Z,5.70
2022-12-06T07:46:48.610Z,5.80
2022-12-06T07:49:17.778Z,5.80
2022-12-06T07:51:46.600Z,5.90
2022-12-06T07:54:15.298Z,6.00
2022-12-06T07:56:45.382Z,6.00
2022-12-06T07:59:13.970Z,6.20
2022-12-06T08:01:42.689Z,6.20
2022-12-06T08:04:11.097Z,6.30
2022-12-06T08:06:40.010Z,6.30
2022-12-06T08:09:08.590Z,6.20
2022-12-06T08:11:37.345Z,6.30
2022-12-06T08:14:07.050Z,6.40
2022-12-06T08:16:35.417Z,6.40
2022-12-06T08:19:03.678Z,6.50
2022-12-06T08:21:31.928Z,6.50
2022-12-06T08:24:00.262Z,6.60
2022-12-06T08:26:28.924Z,6.60
2022-12-06T08:28:57.747Z,6.50
2022-12-06T08:31:27.508Z,6.60
2022-12-06T08:33:55.848Z,6.50
2022-12-06T08:36:25.654Z,6.60
2022-12-06T08:38:54.227Z,6.50
2022-12-06T08:41:40.895Z,6.60
2022-12-06T08:44:12.635Z,6.50
2022-12-06T08:46:43.235Z,6.60
2022-12-06T08:49:12.379Z,6.70
2022-12-06T08:51:40.929Z,6.80
2022-12-06T08:54:10.723Z,6.80
2022-12-06T08:56:38.961Z,7.00
2022-12-06T08:59:07.588Z,7.20
2022-12-06T09:01:38.208Z,7.30
2022-12-06T09:04:11.850Z,7.40
2022-12-06T09:06:42.167Z,7.60
2022-12-06T09:09:11.399Z,7.40
2022-12-06T09:11:40.618Z,7.40
2022-12-06T09:14:10.194Z,7.50
2022-12-06T09:16:38.801Z,7.60
2022-12-06T09:19:08.305Z,7.60
2022-12-06T09:21:39.493Z,7.60
2022-12-06T09:24:08.344Z,7.50
2022-12-06T09:26:36.554Z,7.30
2022-12-06T09:29:04.851Z,6.80
2022-12-06T09:31:33.061Z,6.80
2022-12-06T09:34:01.263Z,6.60
2022-12-06T09:36:32.113Z,6.60
2022-12-06T09:39:05.602Z,6.80
2022-12-06T09:41:55.991Z,7.10
2022-12-06T09:44:44.087Z,7.20
2022-12-06T09:47:27.134Z,7.30
2022-12-06T09:50:08.546Z,7.30
2022-12-06T09:52:53.086Z,7.30
2022-12-06T09:55:32.185Z,7.30
2022-12-06T09:58:07.317Z,7.20
2022-12-06T10:00:43.041Z,7.10
2022-12-06T10:03:35.264Z,7.10
2022-12-06T10:06:05.487Z,7.10
2022-12-06T10:08:56.366Z,7.20
2022-12-06T10:11:44.465Z,7.30
2022-12-06T10:14:25.058Z,7.60
2022-12-06T10:17:00.937Z,7.70
2022-12-06T10:19:44.707Z,7.70
2022-12-06T10:22:20.746Z,7.50
2022-12-06T10:24:59.388Z,7.40
2022-12-06T10:27:34.662Z,7.70
2022-12-06T10:30:05.710Z,7.60
2022-12-06T10:32:53.471Z,7.70
2022-12-06T10:35:41.323Z,7.70
2022-12-06T10:38:21.162Z,7.60
2022-12-06T10:41:02.940Z,7.80
2022-12-06T10:43:37.670Z,7.80
2022-12-06T10:46:30.109Z,7.70
2022-12-06T10:49:05.342Z,7.60
2022-12-06T10:51:40.751Z,7.30
2022-12-06T10:54:21.166Z,7.40
2022-12-06T10:56:53.753Z,7.60
2022-12-06T10:59:29.247Z,7.90
2022-12-06T11:02:01.126Z,8.00
2022-12-06T11:04:35.722Z,8.10
2022-12-06T11:07:13.387Z,7.90
2022-12-06T11:09:44.159Z,7.90
2022-12-06T11:12:29.580Z,7.90
2022-12-06T11:15:05.594Z,7.80
2022-12-06T11:17:38.311Z,7.80
2022-12-06T11:20:16.265Z,8.00
2022-12-06T11:22:54.469Z,8.20
2022-12-06T11:25:28.140Z,7.90
2022-12-06T11:28:06.528Z,7.80
2022-12-06T11:30:34.986Z,7.60
2022-12-06T11:33:04.542Z,7.40
2022-12-06T11:35:33.432Z,7.30
2022-12-06T11:38:05.172Z,7.30
2022-12-06T11:40:36.963Z,7.50
2022-12-06T11:43:08.629Z,7.40
2022-12-06T11:45:41.104Z,7.40
2022-12-06T11:48:15.087Z,7.40
2022-12-06T11:50:44.726Z,7.30
2022-12-06T11:53:19.617Z,7.10
2022-12-06T11:55:51.831Z,7.00
2022-12-06T11:58:29.444Z,6.90
2022-12-06T12:01:01.740Z,6.80
2022-12-06T12:03:32.908Z,6.80
2022-12-06T12:06:22.768Z,7.00
2022-12-06T12:08:58.702Z,7.30
2022-12-06T12:11:29.529Z,7.60
2022-12-06T12:14:02.020Z,8.00
2022-12-06T12:16:34.168Z,8.20
2022-12-06T12:19:05.219Z,8.10
2022-12-06T12:21:40.224Z,7.80
2022-12-06T12:27:47.441Z,7.30
2022-12-06T12:30:36.471Z,7.30
2022-12-06T12:33:18.571Z,7.40
2022-12-06T12:35:48.898Z,7.60
2022-12-06T12:38:22.541Z,7.80
2022-12-06T12:40:54.217Z,8.10
2022-12-06T12:43:25.268Z,8.40
2022-12-06T12:46:25.109Z,8.60
2022-12-06T12:48:53.525Z,8.30
2022-12-06T12:51:34.249Z,8.00
2022-12-06T12:54:04.705Z,7.60
2022-12-06T12:56:36.254Z,7.60
2022-12-06T12:59:07.902Z,7.60
2022-12-06T13:01:46.172Z,7.70
2022-12-06T13:04:25.227Z,7.70
2022-12-06T13:06:57.204Z,7.90
2022-12-06T13:09:29.006Z,7.90
2022-12-06T13:12:02.714Z,7.80
2022-12-06T13:14:32.391Z,8.20
2022-12-06T13:17:08.789Z,8.50
2022-12-06T13:19:41.971Z,8.70
2022-12-06T13:22:17.134Z,8.80
2022-12-06T13:24:47.031Z,8.80
2022-12-06T13:27:19.881Z,8.90
2022-12-06T13:29:56.493Z,8.90
2022-12-06T13:32:31.921Z,8.90
2022-12-06T13:35:03.993Z,9.00
2022-12-06T13:37:42.956Z,9.00
2022-12-06T13:40:49.914Z,9.00
2022-12-06T13:43:51.657Z,8.70
2022-12-06T13:46:34.106Z,8.30
2022-12-06T13:49:10.727Z,7.80
2022-12-06T13:51:47.275Z,7.50
2022-12-06T13:54:36.320Z,7.20
2022-12-06T13:57:23.740Z,7.10
2022-12-06T13:59:52.604Z,7.10
2022-12-06T14:02:51.095Z,7.10
2022-12-06T14:08:39.432Z,7.10
2022-12-06T14:11:15.001Z,7.10
2022-12-06T14:13:45.090Z,7.00
2022-12-06T14:16:22.623Z,7.10
2022-12-06T14:18:51.469Z,7.30
2022-12-06T14:21:25.814Z,7.50
2022-12-06T14:23:54.324Z,7.60
2022-12-06T14:26:25.928Z,7.50
2022-12-06T14:28:56.418Z,7.50
2022-12-06T14:31:29.041Z,7.30
2022-12-06T14:33:57.797Z,7.20
2022-12-06T14:36:30.829Z,7.00
2022-12-06T14:39:02.324Z,6.80
2022-12-06T14:41:51.037Z,6.80
2022-12-06T14:44:20.688Z,6.80
2022-12-06T14:46:50.124Z,6.70
2022-12-06T14:49:39.059Z,6.60
2022-12-06T14:52:27.107Z,6.60
2022-12-06T14:55:16.357Z,6.60
2022-12-06T14:57:47.329Z,6.50
2022-12-06T15:00:26.484Z,6.50
2022-12-06T15:03:25.452Z,6.40
2022-12-06T15:06:11.387Z,6.40
2022-12-06T15:08:42.675Z,6.20
2022-12-06T15:11:51.701Z,6.10
2022-12-06T15:14:23.031Z,6.00
2022-12-06T15:17:00.375Z,6.00
2022-12-06T15:19:30.472Z,5.90
2022-12-06T15:21:58.652Z,5.80
2022-12-06T15:24:29.359Z,5.70
2022-12-06T15:26:58.367Z,5.60
2022-12-06T15:29:26.682Z,5.50
2022-12-06T15:31:55.966Z,5.50
2022-12-06T15:34:28.654Z,5.40
2022-12-06T15:37:29.773Z,5.30
2022-12-06T15:39:48.405Z,5.30
2022-12-06T15:42:19.561Z,5.40
2022-12-06T15:44:49.730Z,5.40
2022-12-06T15:47:28.857Z,5.50
2022-12-06T15:49:58.219Z,5.60
2022-12-06T15:52:27.887Z,5.60
2022-12-06T15:54:57.669Z,5.60
2022-12-06T15:57:25.908Z,5.60
2022-12-06T15:59:54.056Z,5.70
2022-12-06T16:02:22.319Z,5.80
2022-12-06T16:04:51.860Z,5.90
2022-12-06T16:07:20.128Z,6.00
2022-12-06T16:09:48.888Z,6.00
2022-12-06T16:12:18.680Z,6.00
2022-12-06T16:14:46.854Z,6.10
2022-12-06T16:17:15.038Z,6.10
2022-12-06T16:20:00.764Z,6.10
2022-12-06T16:22:42.862Z,6.20
2022-12-06T16:25:11.155Z,6.20
2022-12-06T16:27:40.790Z,6.20
2022-12-06T16:30:10.425Z,6.30
2022-12-06T16:32:38.780Z,6.30
2022-12-06T16:35:07.275Z,6.30
2022-12-06T16:37:35.588Z,6.30
2022-12-06T16:40:04.283Z,6.30
2022-12-06T16:42:32.594Z,6.30
2022-12-06T16:45:02.561Z,6.30
2022-12-06T16:49:58.137Z,6.30
2022-12-06T16:52:26.363Z,6.40
2022-12-06T16:54:54.562Z,6.40
2022-12-06T16:57:22.934Z,6.40
2022-12-06T16:59:51.201Z,6.40
2022-12-06T17:02:28.732Z,6.40
2022-12-06T17:04:57.285Z,6.40
2022-12-06T17:07:25.736Z,6.40
2022-12-06T17:09:54.415Z,6.40
2022-12-06T17:12:22.806Z,6.50
2022-12-06T17:14:51.329Z,6.50
2022-12-06T17:17:21.459Z,6.50
2022-12-06T17:19:51.413Z,6.50
2022-12-06T17:22:19.958Z,6.50
2022-12-06T17:24:48.254Z,6.50
2022-12-06T17:27:17.319Z,6.60
2022-12-06T17:29:45.714Z,6.50
2022-12-06T17:32:14.930Z,6.60
2022-12-06T17:34:43.300Z,6.60
2022-12-06T17:37:12.970Z,6.60
2022-12-06T17:39:41.232Z,6.60
2022-12-06T17:42:28.587Z,6.60
2022-12-06T17:44:57.673Z,6.60
2022-12-06T17:47:26.174Z,6.60
2022-12-06T17:49:55.190Z,6.60
2022-12-06T17:52:24.801Z,6.50
2022-12-06T17:54:53.036Z,6.60
2022-12-06T17:57:21.294Z,6.60
2022-12-06T17:59:49.879Z,6.60
2022-12-06T18:02:23.252Z,6.50
2022-12-06T18:04:52.558Z,6.60
2022-12-06T18:07:20.800Z,6.60
2022-12-06T18:09:50.710Z,6.60
2022-12-06T18:12:19.199Z,6.50
2022-12-06T18:14:47.358Z,6.50
2022-12-06T18:17:15.622Z,6.50
2022-12-06T18:19:46.685Z,6.50
2022-12-06T18:22:15.430Z,6.60
2022-12-06T18:24:44.660Z,6.60
2022-12-06T18:27:14.324Z,6.60
2022-12-06T18:29:42.679Z,6.60
2022-12-06T18:32:11.004Z,6.60
2022-12-06T18:34:39.459Z,6.60
2022-12-06T18:37:07.667Z,6.60
2022-12-06T18:39:35.853Z,6.60
2022-12-06T18:42:03.989Z,6.60
2022-12-06T18:44:34.586Z,6.60
2022-12-06T18:47:02.849Z,6.70
2022-12-06T18:49:31.125Z,6.70
2022-12-06T18:51:59.367Z,6.70
2022-12-06T18:54:28.258Z,6.60
2022-12-06T18:56:58.560Z,6.70
2022-12-06T18:59:28.004Z,6.70
2022-12-06T19:01:58.022Z,6.70
2022-12-06T19:04:26.326Z,6.70
2022-12-06T19:06:54.620Z,6.70
2022-12-06T19:09:23.529Z,6.70
2022-12-06T19:11:51.807Z,6.80
2022-12-06T19:14:20.340Z,6.70
2022-12-06T19:16:50.847Z,6.70
2022-12-06T19:19:22.848Z,6.60
2022-12-06T19:21:52.782Z,6.60
2022-12-06T19:24:23.258Z,6.60
2022-12-06T19:26:52.522Z,6.40
2022-12-06T19:29:20.963Z,6.30
2022-12-06T19:31:49.311Z,6.20
2022-12-06T19:34:21.184Z,6.20
2022-12-06T19:36:50.526Z,6.30
2022-12-06T19:39:19.534Z,6.30
2022-12-06T19:42:05.993Z,6.20
2022-12-06T19:44:34.572Z,6.30
2022-12-06T19:47:03.082Z,6.30
2022-12-06T19:49:33.082Z,6.40
2022-12-06T19:52:01.483Z,6.40
2022-12-06T19:54:32.467Z,6.40
2022-12-06T19:57:01.872Z,6.40
2022-12-06T19:59:32.228Z,6.40
2022-12-06T20:02:00.626Z,6.40
2022-12-06T20:04:30.919Z,6.40
2022-12-06T20:07:00.944Z,6.40
2022-12-06T20:09:30.834Z,6.40
2022-12-06T20:12:04.520Z,6.30
2022-12-06T20:14:38.546Z,6.30
2022-12-06T20:17:09.069Z,6.30
2022-12-06T20:19:37.409Z,6.30
2022-12-06T20:22:06.966Z,6.20
2022-12-06T20:24:35.197Z,6.20
2022-12-06T20:27:03.559Z,6.20
2022-12-06T20:29:32.617Z,6.10
2022-12-06T20:32:01.822Z,6.10
2022-12-06T20:34:33.841Z,6.10
2022-12-06T20:37:04.373Z,6.10
2022-12-06T20:39:35.483Z,6.10
2022-12-06T20:42:05.485Z,6.10
2022-12-06T20:44:34.137Z,6.10
2022-12-06T20:47:02.623Z,6.00
2022-12-06T20:49:31.031Z,6.00
2022-12-06T20:52:01.923Z,6.00
2022-12-06T20:54:30.209Z,5.90
2022-12-06T20:56:59.964Z,5.90
2022-12-06T20:59:29.348Z,5.90
2022-12-06T21:02:00.898Z,6.00
2022-12-06T21:04:29.135Z,5.90
2022-12-06T21:06:57.878Z,5.90
2022-12-06T21:09:29.488Z,5.90
2022-12-06T21:11:59.069Z,5.90
2022-12-06T21:14:27.285Z,5.80
2022-12-06T21:16:55.475Z,5.90
2022-12-06T21:19:23.646Z,5.80
2022-12-06T21:21:55.210Z,5.90
2022-12-06T21:24:23.539Z,6.00
2022-12-06T21:26:51.746Z,6.00
2022-12-06T21:29:30.111Z,6.00
2022-12-06T21:32:01.384Z,6.10
2022-12-06T21:34:29.597Z,6.10
2022-12-06T21:36:57.834Z,6.10
2022-12-06T21:39:26.051Z,6.10
2022-12-06T21:41:54.738Z,6.00
2022-12-06T21:44:24.838Z,5.90
2022-12-06T21:46:53.622Z,5.90
2022-12-06T21:49:21.918Z,5.80
2022-12-06T21:51:53.760Z,5.80
2022-12-06T21:54:24.963Z,5.90
2022-12-06T21:56:53.135Z,5.90
2022-12-06T21:59:21.395Z,5.90
2022-12-06T22:01:51.561Z,5.90
2022-12-06T22:04:20.140Z,5.80
2022-12-06T22:06:48.288Z,5.80
2022-12-06T22:09:16.546Z,5.70
2022-12-06T22:11:44.887Z,5.70
2022-12-06T22:14:13.203Z,5.80
2022-12-06T22:16:41.416Z,5.80
2022-12-06T22:19:10.983Z,5.70
2022-12-06T22:21:39.313Z,5.80
2022-12-06T22:24:08.096Z,5.70
2022-12-06T22:26:36.297Z,5.60
2022-12-06T22:29:04.486Z,5.60
2022-12-06T22:31:34.408Z,5.60
2022-12-06T22:34:03.364Z,5.60
2022-12-06T22:36:33.631Z,5.70
2022-12-06T22:39:04.958Z,5.80
2022-12-06T22:41:33.781Z,5.80
2022-12-06T22:44:04.381Z,5.80
2022-12-06T22:46:33.879Z,5.80
2022-12-06T22:49:03.055Z,5.70
2022-12-06T22:51:34.568Z,5.70
2022-12-06T22:54:04.351Z,5.70
2022-12-06T22:56:34.109Z,5.80
2022-12-06T22:59:02.980Z,5.80
2022-12-06T23:01:32.769Z,5.80
2022-12-06T23:04:02.260Z,5.80
2022-12-06T23:06:32.127Z,5.80
2022-12-06T23:09:00.389Z,5.80
2022-12-06T23:11:31.063Z,5.80
2022-12-06T23:13:59.589Z,5.80
2022-12-06T23:16:30.012Z,5.80
2022-12-06T23:18:59.745Z,5.80
2022-12-06T23:21:30.095Z,5.80
2022-12-06T23:24:02.611Z,5.70
2022-12-06T23:26:34.090Z,5.60
2022-12-06T23:29:02.792Z,5.60
2022-12-06T23:31:33.084Z,5.50
2022-12-06T23:34:03.025Z,5.50
2022-12-06T23:36:33.013Z,5.50
2022-12-06T23:39:03.341Z,5.50
2022-12-06T23:41:32.841Z,5.60
2022-12-06T23:44:01.522Z,5.60
2022-12-06T23:46:31.081Z,5.70
2022-12-06T23:49:00.205Z,5.60
2022-12-06T23:51:30.750Z,5.60
2022-12-06T23:54:00.120Z,5.60
2022-12-06T23:56:31.766Z,5.50
2022-12-06T23:59:00.184Z,5.50
